Time;durP1;ratioP1;P1;durP2;ratioP2;P2;SDS_P1;SDS_P2;PMS_P1;PMS_P2;Temp;Humidity;BMP_temperature;BMP_pressure;BME280_temperature;BME280_humidity;BME280_pressure;Samples;Min_cycle;Max_cycle;Signal;HPM_P1;HPM_P2
2022/04/17 00:02:06;;;;;;;13.98;5.22;;;;;;;;;;5005981;28;20059;-66
2022/04/17 00:04:37;;;;;;;11.02;4.07;;;;;;;;;;5051909;28;20071;-66
2022/04/17 00:07:07;;;;;;;10.13;3.85;;;;;;;;;;5051765;28;20056;-66
2022/04/17 00:09:38;;;;;;;7.10;3.25;;;;;;;;;;5051963;28;20501;-66
2022/04/17 00:12:10;;;;;;;8.70;3.33;;;;;;;;;;5066256;28;20431;-66
2022/04/17 00:14:43;;;;;;;8.48;3.17;;;;;;;;;;5074387;28;20488;-66
2022/04/17 00:17:14;;;;;;;7.97;3.30;;;;;;;;;;5073795;28;20056;-66
2022/04/17 00:19:45;;;;;;;8.43;3.63;;;;;;;;;;5074011;28;20049;-66
2022/04/17 00:22:15;;;;;;;9.77;3.78;;;;;;;;;;5011823;28;20058;-67
2022/04/17 00:24:46;;;;;;;9.35;3.60;;;;;;;;;;4992014;28;20059;-65
2022/04/17 00:27:17;;;;;;;12.13;4.22;;;;;;;;;;4992141;28;20050;-67
2022/04/17 00:29:48;;;;;;;10.25;3.80;;;;;;;;;;4940338;28;20051;-66
2022/04/17 00:32:18;;;;;;;9.07;3.53;;;;;;;;;;4972619;28;20066;-67
2022/04/17 00:34:49;;;;;;;11.05;3.85;;;;;;;;;;4972561;28;20054;-67
2022/04/17 00:37:20;;;;;;;9.60;3.42;;;;;;;;;;4952884;29;20567;-67
2022/04/17 00:39:51;;;;;;;6.53;3.28;;;;;;;;;;4953471;29;20063;-67
2022/04/17 00:42:21;;;;;;;8.68;4.13;;;;;;;;;;4952676;29;20051;-67
2022/04/17 00:44:52;;;;;;;7.13;3.40;;;;;;;;;;4914880;29;20059;-67
2022/04/17 00:47:23;;;;;;;7.95;3.50;;;;;;;;;;4914735;29;20076;-67
2022/04/17 00:49:53;;;;;;;8.18;3.15;;;;;;;;;;4914837;29;20060;-67
2022/04/17 00:52:24;;;;;;;8.30;3.13;;;;;;;;;;4895596;29;20551;-67
2022/04/17 00:54:56;;;;;;;6.70;2.83;;;;;;;;;;4895798;29;20057;-67
2022/04/17 00:57:27;;;;;;;6.55;3.10;;;;;;;;;;4880740;29;20056;-67
2022/04/17 00:59:58;;;;;;;7.22;2.97;;;;;;;;;;4861275;29;20088;-67
2022/04/17 01:02:29;;;;;;;6.20;2.63;;;;;;;;;;4876692;29;20098;-67
2022/04/17 01:05:00;;;;;;;11.35;3.00;;;;;;;;;;4877089;29;20513;-67
2022/04/17 01:07:31;;;;;;;6.38;2.97;;;;;;;;;;4886242;29;20061;-67
2022/04/17 01:10:03;;;;;;;6.53;2.88;;;;;;;;;;4895547;29;20064;-67
2022/04/17 01:12:37;;;;;;;7.57;2.75;;;;;;;;;;4891874;29;20057;-67
2022/04/17 01:15:10;;;;;;;7.13;3.00;;;;;;;;;;4887237;29;20060;-67
2022/04/17 01:17:41;;;;;;;10.02;2.92;;;;;;;;;;4880133;29;20064;-67
2022/04/17 01:20:13;;;;;;;7.22;2.55;;;;;;;;;;4890593;29;20070;-67
2022/04/17 01:22:51;;;;;;;8.20;3.65;;;;;;;;;;4936718;29;20050;-67
2022/04/17 01:28:11;;;;;;;7.57;3.08;;;;;;;;;;4952314;29;20047;-67
2022/04/17 01:30:41;;;;;;;6.78;2.40;;;;;;;;;;4952334;29;20062;-67
2022/04/17 01:33:12;;;;;;;7.20;2.80;;;;;;;;;;4952185;29;20435;-67
2022/04/17 01:35:42;;;;;;;5.60;2.70;;;;;;;;;;4932493;29;20047;-67
2022/04/17 01:38:13;;;;;;;6.88;3.03;;;;;;;;;;4975951;28;20093;-67
2022/04/17 01:40:44;;;;;;;6.25;2.38;;;;;;;;;;4970981;28;20388;-67
2022/04/17 01:43:14;;;;;;;7.50;2.55;;;;;;;;;;4971557;28;20069;-67
2022/04/17 01:45:45;;;;;;;6.53;3.13;;;;;;;;;;4971173;28;20525;-67
2022/04/17 01:48:16;;;;;;;5.72;2.22;;;;;;;;;;4971145;28;20043;-67
2022/04/17 01:50:47;;;;;;;7.47;2.47;;;;;;;;;;4954617;28;20055;-67
2022/04/17 01:53:17;;;;;;;10.05;2.38;;;;;;;;;;4970917;28;20051;-67
2022/04/17 01:55:48;;;;;;;6.30;2.35;;;;;;;;;;4973499;28;20055;-67
2022/04/17 01:58:19;;;;;;;6.03;2.85;;;;;;;;;;4958326;28;20518;-67
2022/04/17 02:00:49;;;;;;;8.23;2.65;;;;;;;;;;4951507;29;20062;-67
2022/04/17 02:03:20;;;;;;;6.15;2.50;;;;;;;;;;4920045;29;20582;-67
2022/04/17 02:05:51;;;;;;;5.22;2.15;;;;;;;;;;4951508;29;20074;-67
2022/04/17 02:08:22;;;;;;;7.20;2.50;;;;;;;;;;4951575;29;20039;-67
2022/04/17 02:10:52;;;;;;;7.75;2.40;;;;;;;;;;4951180;29;20054;-67
2022/04/17 02:13:25;;;;;;;5.47;2.42;;;;;;;;;;4951601;29;20059;-67
2022/04/17 02:15:57;;;;;;;5.63;2.63;;;;;;;;;;4951328;29;20062;-67
2022/04/17 02:18:27;;;;;;;4.82;2.38;;;;;;;;;;4942208;29;20055;-67
2022/04/17 02:20:59;;;;;;;9.05;2.50;;;;;;;;;;4951027;28;20055;-67
2022/04/17 02:23:29;;;;;;;9.05;2.35;;;;;;;;;;4951306;28;20062;-67
2022/04/17 02:26:01;;;;;;;6.82;3.05;;;;;;;;;;4917651;29;20542;-67
2022/04/17 02:28:35;;;;;;;7.47;3.00;;;;;;;;;;4951245;29;20066;-67
2022/04/17 02:31:06;;;;;;;7.57;2.70;;;;;;;;;;4951044;29;20063;-67
2022/04/17 02:33:38;;;;;;;6.22;2.63;;;;;;;;;;4912816;29;20065;-67
2022/04/17 02:36:09;;;;;;;9.50;2.85;;;;;;;;;;4912796;29;20064;-67
2022/04/17 02:38:40;;;;;;;6.22;2.45;;;;;;;;;;4924484;29;20052;-67
2022/04/17 02:41:10;;;;;;;7.32;2.67;;;;;;;;;;4901349;29;20063;-67
2022/04/17 02:43:41;;;;;;;7.13;3.08;;;;;;;;;;4916315;29;20703;-67
2022/04/17 02:46:12;;;;;;;8.10;3.00;;;;;;;;;;4912242;29;20678;-67
2022/04/17 02:48:43;;;;;;;7.97;2.75;;;;;;;;;;4912935;29;20052;-67
2022/04/17 02:51:14;;;;;;;8.98;3.22;;;;;;;;;;4893723;29;20060;-67
2022/04/17 02:53:44;;;;;;;8.25;2.70;;;;;;;;;;4894295;29;20425;-67
2022/04/17 02:56:15;;;;;;;7.57;2.70;;;;;;;;;;4904518;29;20060;-67
2022/04/17 02:58:46;;;;;;;5.40;2.67;;;;;;;;;;4912959;29;20552;-67
2022/04/17 03:06:54;;;;;;;6.20;2.67;;;;;;;;;;4970003;28;20047;-67
2022/04/17 03:09:25;;;;;;;6.07;2.70;;;;;;;;;;4970017;28;20058;-68
2022/04/17 03:11:55;;;;;;;7.82;5.05;;;;;;;;;;4969739;28;20157;-67
2022/04/17 03:14:25;;;;;;;6.57;2.80;;;;;;;;;;4953719;28;20051;-67
2022/04/17 03:16:56;;;;;;;5.93;2.58;;;;;;;;;;4969526;28;20426;-68
2022/04/17 03:19:27;;;;;;;7.18;2.88;;;;;;;;;;4969891;28;20055;-67
2022/04/17 03:21:58;;;;;;;6.18;2.88;;;;;;;;;;4969865;28;20058;-67
2022/04/17 03:24:28;;;;;;;7.07;3.00;;;;;;;;;;4984583;28;20066;-67
2022/04/17 03:26:59;;;;;;;7.55;2.97;;;;;;;;;;4934317;29;20431;-67
2022/04/17 03:29:30;;;;;;;8.00;3.42;;;;;;;;;;4974677;28;20054;-67
2022/04/17 03:32:01;;;;;;;7.35;3.40;;;;;;;;;;4990994;28;20514;-67
2022/04/17 03:34:32;;;;;;;6.63;3.00;;;;;;;;;;4993039;28;20051;-67
2022/04/17 03:37:04;;;;;;;11.93;3.45;;;;;;;;;;4944652;28;20058;-67
2022/04/17 03:39:35;;;;;;;9.45;2.95;;;;;;;;;;4993033;28;20104;-67
2022/04/17 03:42:06;;;;;;;6.00;2.67;;;;;;;;;;4992796;28;20058;-67
2022/04/17 03:44:38;;;;;;;6.43;2.85;;;;;;;;;;4992996;28;20410;-67
2022/04/17 03:47:08;;;;;;;7.72;2.95;;;;;;;;;;4992755;28;20069;-68
2022/04/17 03:49:39;;;;;;;7.57;3.30;;;;;;;;;;4992758;28;20082;-67
2022/04/17 03:52:10;;;;;;;8.70;3.13;;;;;;;;;;4992754;28;20074;-67
2022/04/17 03:54:40;;;;;;;7.80;2.90;;;;;;;;;;4992775;28;20050;-68
2022/04/17 03:57:11;;;;;;;8.38;3.38;;;;;;;;;;4992607;28;20094;-67
2022/04/17 03:59:41;;;;;;;6.18;2.83;;;;;;;;;;4992900;28;20102;-67
2022/04/17 04:02:12;;;;;;;6.07;2.83;;;;;;;;;;4944162;28;20050;-68
2022/04/17 04:04:43;;;;;;;7.30;3.25;;;;;;;;;;5003251;28;20058;-67
2022/04/17 04:07:14;;;;;;;7.00;3.10;;;;;;;;;;5027993;28;20061;-67
2022/04/17 04:09:44;;;;;;;6.63;2.90;;;;;;;;;;5054068;28;20413;-67
2022/04/17 04:12:15;;;;;;;9.05;2.85;;;;;;;;;;5054081;28;20037;-67
2022/04/17 04:14:46;;;;;;;5.97;2.70;;;;;;;;;;5054241;28;20063;-67
2022/04/17 04:17:16;;;;;;;6.82;2.50;;;;;;;;;;5011545;28;20046;-68
2022/04/17 04:19:47;;;;;;;9.20;2.60;;;;;;;;;;5015479;28;20053;-67
2022/04/17 04:22:17;;;;;;;6.80;2.45;;;;;;;;;;5031512;28;20192;-67
2022/04/17 04:24:49;;;;;;;10.65;3.00;;;;;;;;;;4995270;28;20049;-67
2022/04/17 04:30:09;;;;;;;5.88;2.63;;;;;;;;;;5031266;28;20045;-67
2022/04/17 04:32:52;;;;;;;8.15;2.88;;;;;;;;;;4998226;28;20046;-67
2022/04/17 04:35:23;;;;;;;5.50;2.05;;;;;;;;;;4982704;28;20046;-67
2022/04/17 04:37:54;;;;;;;6.07;2.70;;;;;;;;;;4991646;28;20050;-67
2022/04/17 04:40:25;;;;;;;7.32;2.53;;;;;;;;;;4992028;28;20169;-67
2022/04/17 04:43:03;;;;;;;6.75;2.92;;;;;;;;;;5029482;28;20057;-67
2022/04/17 04:51:13;;;;;;;6.45;2.90;;;;;;;;;;5031199;28;20041;-67
2022/04/17 04:53:43;;;;;;;10.32;2.75;;;;;;;;;;5030592;28;20052;-67
2022/04/17 04:56:14;;;;;;;6.05;2.90;;;;;;;;;;4990819;28;20053;-67
2022/04/17 04:58:45;;;;;;;7.22;3.72;;;;;;;;;;4991762;28;20046;-67
2022/04/17 05:01:16;;;;;;;7.82;2.50;;;;;;;;;;4991468;28;20158;-67
2022/04/17 05:03:47;;;;;;;5.93;2.70;;;;;;;;;;5011184;28;20065;-67
2022/04/17 05:06:17;;;;;;;11.38;3.22;;;;;;;;;;5010772;28;20054;-68
2022/04/17 05:08:48;;;;;;;5.53;3.00;;;;;;;;;;5017476;28;20461;-67
2022/04/17 05:11:20;;;;;;;6.88;2.50;;;;;;;;;;5017393;28;20068;-67
2022/04/17 05:13:51;;;;;;;9.88;3.40;;;;;;;;;;5030620;28;20821;-68
2022/04/17 05:16:21;;;;;;;9.40;3.03;;;;;;;;;;5013758;28;20057;-68
2022/04/17 05:19:18;;;;;;;10.32;3.35;;;;;;;;;;5030182;28;20432;-68
2022/04/17 05:21:46;;;;;;;9.75;3.25;;;;;;;;;;5029986;28;20053;-68
2022/04/17 05:24:17;;;;;;;7.35;3.00;;;;;;;;;;4997526;28;20048;-67
2022/04/17 05:26:47;;;;;;;8.88;3.22;;;;;;;;;;5030183;28;20108;-68
2022/04/17 05:29:19;;;;;;;8.77;2.63;;;;;;;;;;5030472;28;20444;-67
2022/04/17 05:31:50;;;;;;;8.00;2.97;;;;;;;;;;5030306;28;20053;-67
2022/04/17 05:34:20;;;;;;;7.35;2.53;;;;;;;;;;5030380;28;20069;-68
2022/04/17 05:36:51;;;;;;;7.88;2.70;;;;;;;;;;5029970;28;20049;-67
2022/04/17 05:39:21;;;;;;;6.90;3.10;;;;;;;;;;5029925;28;20062;-68
2022/04/17 05:41:53;;;;;;;7.03;2.65;;;;;;;;;;4978028;28;20549;-67
2022/04/17 05:44:23;;;;;;;7.90;2.75;;;;;;;;;;5010311;28;20057;-68
2022/04/17 05:46:56;;;;;;;6.53;2.70;;;;;;;;;;5009731;28;20046;-68
2022/04/17 05:49:27;;;;;;;6.05;2.55;;;;;;;;;;4970608;28;20050;-68
2022/04/17 05:51:58;;;;;;;7.05;2.92;;;;;;;;;;4970872;28;20073;-67
2022/04/17 05:54:29;;;;;;;6.53;2.70;;;;;;;;;;4954350;28;20050;-68
2022/04/17 05:57:01;;;;;;;6.15;2.47;;;;;;;;;;4937807;28;20044;-67
2022/04/17 05:59:32;;;;;;;7.03;2.63;;;;;;;;;;4943582;28;20653;-67
2022/04/17 06:02:04;;;;;;;9.90;2.90;;;;;;;;;;4951258;28;20070;-67
2022/04/17 06:04:39;;;;;;;6.93;2.70;;;;;;;;;;4951247;28;20055;-67
2022/04/17 06:07:10;;;;;;;9.18;2.83;;;;;;;;;;4951310;28;20065;-68
2022/04/17 06:09:41;;;;;;;7.18;2.92;;;;;;;;;;4951515;28;20125;-67
2022/04/17 06:12:11;;;;;;;4.70;2.50;;;;;;;;;;4951378;28;20063;-68
2022/04/17 06:14:42;;;;;;;5.15;2.47;;;;;;;;;;4919510;29;20055;-67
2022/04/17 06:17:12;;;;;;;5.35;2.47;;;;;;;;;;4950912;29;20047;-67
2022/04/17 06:19:43;;;;;;;5.55;2.20;;;;;;;;;;4939924;29;20056;-68
2022/04/17 06:22:14;;;;;;;5.18;2.40;;;;;;;;;;4915937;29;20056;-67
2022/04/17 06:24:45;;;;;;;5.80;2.60;;;;;;;;;;4931908;29;20055;-68
2022/04/17 06:27:16;;;;;;;6.05;2.60;;;;;;;;;;4897960;29;20049;-68
2022/04/17 06:29:46;;;;;;;5.75;2.25;;;;;;;;;;4875568;29;20057;-68
2022/04/17 06:32:17;;;;;;;6.65;2.70;;;;;;;;;;4875587;29;20057;-67
2022/04/17 06:34:47;;;;;;;7.47;2.88;;;;;;;;;;4885908;29;20067;-68
2022/04/17 06:37:18;;;;;;;6.18;2.50;;;;;;;;;;4894228;29;20061;-67
2022/04/17 06:39:48;;;;;;;5.82;2.40;;;;;;;;;;4894163;29;20501;-67
2022/04/17 06:42:19;;;;;;;7.13;2.92;;;;;;;;;;4857159;29;20052;-68
2022/04/17 06:44:51;;;;;;;6.45;2.53;;;;;;;;;;4881504;29;20059;-67
2022/04/17 06:47:22;;;;;;;7.03;2.50;;;;;;;;;;4856329;29;20542;-67
2022/04/17 06:49:53;;;;;;;6.28;2.55;;;;;;;;;;4857000;29;20163;-67
2022/04/17 06:52:23;;;;;;;5.07;2.35;;;;;;;;;;4893449;29;20500;-67
2022/04/17 06:54:54;;;;;;;5.47;1.80;;;;;;;;;;4903558;29;20056;-68
2022/04/17 06:57:33;;;;;;;4.78;2.30;;;;;;;;;;4912601;29;20064;-67
2022/04/17 07:00:10;;;;;;;4.55;1.88;;;;;;;;;;4913052;29;20420;-67
2022/04/17 07:02:43;;;;;;;5.35;2.25;;;;;;;;;;4917136;29;20519;-68
2022/04/17 07:05:15;;;;;;;5.32;2.05;;;;;;;;;;4955856;28;20522;-68
2022/04/17 07:07:46;;;;;;;7.80;2.45;;;;;;;;;;4973633;28;20074;-67
2022/04/17 07:10:17;;;;;;;7.20;2.25;;;;;;;;;;4974189;28;20411;-68
2022/04/17 07:12:47;;;;;;;4.97;2.20;;;;;;;;;;4935382;29;20439;-67
2022/04/17 07:15:19;;;;;;;4.93;2.45;;;;;;;;;;4888160;29;20519;-67
2022/04/17 07:17:52;;;;;;;5.82;2.45;;;;;;;;;;4903787;29;20056;-67
2022/04/17 07:20:24;;;;;;;6.47;2.70;;;;;;;;;;4924226;29;20452;-67
2022/04/17 07:22:54;;;;;;;6.53;2.38;;;;;;;;;;4935238;29;20067;-67
2022/04/17 07:25:25;;;;;;;6.45;2.47;;;;;;;;;;4919051;29;20415;-68
2022/04/17 07:27:56;;;;;;;6.88;2.80;;;;;;;;;;4935421;29;20068;-67
2022/04/17 07:30:30;;;;;;;5.85;2.47;;;;;;;;;;4929733;28;20102;-68
2022/04/17 07:33:02;;;;;;;5.70;2.50;;;;;;;;;;4973562;28;20099;-68
2022/04/17 07:35:33;;;;;;;5.15;2.58;;;;;;;;;;4935275;29;20063;-67
2022/04/17 07:38:05;;;;;;;5.78;2.47;;;;;;;;;;4918969;29;20063;-68
2022/04/17 07:40:36;;;;;;;6.93;2.83;;;;;;;;;;4946471;29;20059;-67
2022/04/17 07:43:07;;;;;;;6.75;3.05;;;;;;;;;;4906574;29;20055;-67
2022/04/17 07:45:38;;;;;;;5.90;2.35;;;;;;;;;;4954190;29;20059;-67
2022/04/17 07:48:09;;;;;;;7.18;3.30;;;;;;;;;;4954123;29;20063;-68
2022/04/17 07:50:40;;;;;;;5.88;2.40;;;;;;;;;;4946020;28;20055;-67
2022/04/17 07:53:10;;;;;;;5.43;2.47;;;;;;;;;;4992864;28;20434;-68
2022/04/17 07:55:42;;;;;;;4.80;2.40;;;;;;;;;;4992769;28;20054;-68
2022/04/17 07:58:22;;;;;;;4.85;2.65;;;;;;;;;;4961251;28;20426;-68
2022/04/17 08:00:59;;;;;;;4.85;2.45;;;;;;;;;;4972883;28;20062;-68
2022/04/17 08:03:45;;;;;;;4.38;2.20;;;;;;;;;;4957551;28;20408;-68
2022/04/17 08:06:22;;;;;;;7.18;2.47;;;;;;;;;;4960146;28;20054;-68
2022/04/17 08:08:53;;;;;;;5.97;2.83;;;;;;;;;;4973098;28;20410;-68
2022/04/17 08:11:25;;;;;;;6.07;2.83;;;;;;;;;;4989021;28;20061;-68
2022/04/17 08:13:56;;;;;;;5.65;2.47;;;;;;;;;;5005269;28;20058;-68
2022/04/17 08:16:27;;;;;;;6.25;2.80;;;;;;;;;;5011587;28;20050;-68
2022/04/17 08:18:58;;;;;;;5.43;2.45;;;;;;;;;;4978930;28;20045;-68
2022/04/17 08:21:29;;;;;;;8.20;2.67;;;;;;;;;;4962790;28;20080;-68
2022/04/17 08:24:01;;;;;;;6.05;2.58;;;;;;;;;;5011820;28;20061;-68
2022/04/17 08:26:32;;;;;;;8.25;2.92;;;;;;;;;;5011907;28;20199;-68
2022/04/17 08:29:02;;;;;;;6.50;2.72;;;;;;;;;;5011708;28;20068;-68
2022/04/17 08:31:33;;;;;;;6.10;3.08;;;;;;;;;;4972293;28;20046;-68
2022/04/17 08:34:03;;;;;;;7.13;2.92;;;;;;;;;;4972722;28;20059;-68
2022/04/17 08:36:34;;;;;;;6.40;3.22;;;;;;;;;;4924875;28;20058;-67
2022/04/17 08:39:05;;;;;;;5.22;2.30;;;;;;;;;;4972531;28;20480;-68
2022/04/17 08:41:35;;;;;;;5.55;2.63;;;;;;;;;;4972543;28;20055;-68
2022/04/17 08:44:06;;;;;;;6.15;2.75;;;;;;;;;;4940289;28;20051;-68
2022/04/17 08:46:37;;;;;;;4.32;2.13;;;;;;;;;;4883212;29;20060;-68
2022/04/17 08:49:11;;;;;;;6.50;2.38;;;;;;;;;;4914961;29;20068;-68
2022/04/17 08:51:48;;;;;;;5.72;2.20;;;;;;;;;;4914877;29;20056;-68
2022/04/17 08:54:18;;;;;;;4.90;2.13;;;;;;;;;;4937894;29;20082;-68
2022/04/17 08:56:49;;;;;;;5.05;2.25;;;;;;;;;;4916742;28;20051;-68
2022/04/17 08:59:20;;;;;;;5.05;2.25;;;;;;;;;;4972463;28;20084;-68
2022/04/17 09:01:50;;;;;;;5.82;1.65;;;;;;;;;;4972160;28;20054;-68
2022/04/17 09:04:21;;;;;;;4.65;2.03;;;;;;;;;;4972105;28;20055;-68
2022/04/17 09:06:53;;;;;;;3.65;2.10;;;;;;;;;;4972072;28;20050;-68
2022/04/17 09:09:23;;;;;;;5.57;2.15;;;;;;;;;;4975625;28;20054;-68
2022/04/17 09:11:57;;;;;;;6.35;2.28;;;;;;;;;;4958865;28;20077;-68
2022/04/17 09:14:28;;;;;;;5.18;2.47;;;;;;;;;;4952437;28;20059;-68
2022/04/17 09:16:59;;;;;;;5.13;2.40;;;;;;;;;;4936738;28;20055;-69
2022/04/17 09:19:31;;;;;;;5.70;2.97;;;;;;;;;;4952299;28;20059;-68
2022/04/17 09:22:02;;;;;;;5.45;2.80;;;;;;;;;;4936729;28;20063;-69
2022/04/17 09:24:39;;;;;;;5.93;2.78;;;;;;;;;;4990289;28;20555;-68
2022/04/17 09:27:11;;;;;;;7.20;2.97;;;;;;;;;;5010510;28;20407;-68
2022/04/17 09:29:42;;;;;;;7.03;3.10;;;;;;;;;;5009972;28;20065;-68
2022/04/17 09:32:15;;;;;;;9.20;3.10;;;;;;;;;;5010474;28;20077;-68
2022/04/17 09:34:46;;;;;;;6.85;3.22;;;;;;;;;;5010691;28;20061;-68
2022/04/17 09:37:22;;;;;;;6.07;2.60;;;;;;;;;;5010686;28;20056;-68
2022/04/17 09:39:53;;;;;;;5.22;2.30;;;;;;;;;;4971281;28;20051;-68
2022/04/17 09:42:27;;;;;;;7.07;3.20;;;;;;;;;;4971429;28;20070;-68
2022/04/17 09:44:58;;;;;;;7.03;2.03;;;;;;;;;;4971449;28;20051;-68
2022/04/17 09:47:31;;;;;;;6.18;2.35;;;;;;;;;;4984880;28;20076;-68
2022/04/17 09:50:09;;;;;;;6.88;2.15;;;;;;;;;;4970926;28;20062;-69
2022/04/17 09:52:45;;;;;;;5.47;2.65;;;;;;;;;;4988599;28;20046;-68
2022/04/17 09:55:27;;;;;;;8.77;2.28;;;;;;;;;;4977773;28;20418;-69
2022/04/17 09:57:59;;;;;;;5.85;2.45;;;;;;;;;;5010017;28;20058;-68
2022/04/17 10:00:41;;;;;;;6.70;2.33;;;;;;;;;;5010090;28;20053;-68
2022/04/17 10:03:12;;;;;;;6.13;2.70;;;;;;;;;;5010376;28;20426;-67
2022/04/17 10:05:44;;;;;;;6.75;2.50;;;;;;;;;;4990071;28;20057;-68
2022/04/17 10:08:16;;;;;;;4.68;2.10;;;;;;;;;;4990454;28;20521;-68
2022/04/17 10:10:47;;;;;;;4.10;2.05;;;;;;;;;;4990297;28;20070;-68
2022/04/17 10:13:20;;;;;;;6.18;1.83;;;;;;;;;;4970742;28;20522;-68
2022/04/17 10:15:52;;;;;;;6.45;2.33;;;;;;;;;;4989774;28;20067;-68
2022/04/17 10:18:24;;;;;;;6.13;2.40;;;;;;;;;;5006719;28;20054;-68
2022/04/17 10:20:57;;;;;;;5.88;2.40;;;;;;;;;;5009442;28;20057;-68
2022/04/17 10:23:29;;;;;;;4.03;2.10;;;;;;;;;;5009849;28;20050;-68
2022/04/17 10:26:03;;;;;;;6.60;2.28;;;;;;;;;;5009580;28;20172;-68
2022/04/17 10:28:42;;;;;;;6.40;2.13;;;;;;;;;;4992779;28;20474;-68
2022/04/17 10:31:19;;;;;;;5.95;2.05;;;;;;;;;;5009090;28;20046;-68
2022/04/17 10:34:19;;;;;;;6.60;2.08;;;;;;;;;;5009357;28;20054;-68
2022/04/17 10:37:08;;;;;;;6.10;2.20;;;;;;;;;;4973211;28;20051;-67
2022/04/17 10:39:51;;;;;;;6.28;2.30;;;;;;;;;;4989556;28;20552;-68
2022/04/17 10:42:24;;;;;;;10.23;2.72;;;;;;;;;;4956407;28;20069;-68
2022/04/17 10:45:07;;;;;;;11.30;2.47;;;;;;;;;;4970221;28;20055;-68
2022/04/17 10:47:37;;;;;;;8.70;2.40;;;;;;;;;;4954696;28;20059;-67
2022/04/17 10:50:09;;;;;;;6.82;2.50;;;;;;;;;;4973616;28;20566;-68
2022/04/17 10:52:41;;;;;;;5.90;2.13;;;;;;;;;;4973428;28;20059;-68
2022/04/17 10:55:18;;;;;;;4.97;2.25;;;;;;;;;;4989524;28;20057;-68
2022/04/17 10:57:50;;;;;;;6.30;2.47;;;;;;;;;;4989186;28;20058;-68
2022/04/17 11:00:36;;;;;;;6.30;2.22;;;;;;;;;;4989378;28;20054;-68
2022/04/17 11:03:23;;;;;;;7.65;3.13;;;;;;;;;;4989410;28;20069;-68
2022/04/17 11:08:57;;;;;;;9.18;3.80;;;;;;;;;;4980296;28;20050;-68
2022/04/17 11:11:45;;;;;;;7.00;3.35;;;;;;;;;;5018688;28;20061;-68
2022/04/17 11:14:19;;;;;;;6.22;3.25;;;;;;;;;;5041117;28;20057;-68
2022/04/17 11:16:56;;;;;;;5.68;2.75;;;;;;;;;;5015611;28;20053;-68
2022/04/17 11:19:31;;;;;;;6.25;2.65;;;;;;;;;;5015742;28;20053;-67
2022/04/17 11:22:04;;;;;;;8.90;3.05;;;;;;;;;;5016775;28;20149;-67
2022/04/17 11:24:58;;;;;;;10.15;4.40;;;;;;;;;;5048750;28;20079;-68
2022/04/17 11:27:46;;;;;;;8.68;3.67;;;;;;;;;;5048797;28;20049;-68
2022/04/17 11:30:37;;;;;;;9.45;4.53;;;;;;;;;;5035416;28;20072;-68
2022/04/17 11:33:07;;;;;;;9.70;5.25;;;;;;;;;;5008551;28;20050;-67
2022/04/17 11:35:41;;;;;;;7.63;4.30;;;;;;;;;;5008860;28;20061;-68
2022/04/17 11:38:11;;;;;;;10.85;4.47;;;;;;;;;;4992823;28;20061;-67
2022/04/17 11:40:44;;;;;;;7.53;3.65;;;;;;;;;;5008953;28;20042;-67
2022/04/17 11:43:16;;;;;;;11.93;6.07;;;;;;;;;;5000289;28;20444;-68
2022/04/17 11:45:48;;;;;;;43.10;19.73;;;;;;;;;;5012328;28;20057;-67
2022/04/17 11:48:19;;;;;;;29.13;15.18;;;;;;;;;;5028583;28;20049;-67
2022/04/17 11:50:57;;;;;;;40.42;19.02;;;;;;;;;;5012102;28;20057;-67
2022/04/17 11:53:33;;;;;;;36.58;16.95;;;;;;;;;;5031284;28;20049;-67
2022/04/17 11:56:07;;;;;;;37.50;19.00;;;;;;;;;;5016048;28;20054;-67
2022/04/17 11:58:38;;;;;;;38.58;18.00;;;;;;;;;;5031700;28;20526;-68
2022/04/17 12:01:10;;;;;;;39.28;19.40;;;;;;;;;;5032062;28;20052;-68
2022/04/17 12:03:50;;;;;;;37.28;17.65;;;;;;;;;;5032165;28;20061;-68
2022/04/17 12:06:27;;;;;;;33.80;17.55;;;;;;;;;;5011906;28;20428;-68
2022/04/17 12:08:57;;;;;;;28.30;14.77;;;;;;;;;;5012183;28;20528;-67
2022/04/17 12:11:28;;;;;;;19.92;10.38;;;;;;;;;;5043329;28;20045;-68
2022/04/17 12:13:58;;;;;;;14.57;6.35;;;;;;;;;;5051734;28;20048;-67
2022/04/17 12:16:29;;;;;;;8.85;3.58;;;;;;;;;;5051791;28;20048;-67
2022/04/17 12:19:00;;;;;;;6.63;2.85;;;;;;;;;;5051708;28;20057;-67
2022/04/17 12:21:30;;;;;;;7.35;2.83;;;;;;;;;;5069070;28;20061;-68
2022/04/17 12:24:01;;;;;;;7.60;2.83;;;;;;;;;;5038517;28;20052;-67
2022/04/17 12:26:33;;;;;;;8.60;3.40;;;;;;;;;;5038375;28;20199;-67
2022/04/17 12:29:08;;;;;;;11.82;4.88;;;;;;;;;;5038123;28;20060;-67
2022/04/17 12:31:39;;;;;;;8.23;4.15;;;;;;;;;;5071537;28;20500;-67
2022/04/17 12:34:15;;;;;;;7.07;2.75;;;;;;;;;;5071245;28;20068;-67
2022/04/17 12:36:46;;;;;;;9.52;3.13;;;;;;;;;;5071298;28;20053;-68
2022/04/17 12:39:32;;;;;;;11.25;3.95;;;;;;;;;;5071044;28;20052;-67
2022/04/17 12:42:16;;;;;;;6.35;3.47;;;;;;;;;;5055004;28;20179;-67
2022/04/17 12:44:47;;;;;;;4.72;2.30;;;;;;;;;;5056658;28;20064;-67
2022/04/17 12:47:18;;;;;;;4.47;1.77;;;;;;;;;;5053480;28;20046;-67
2022/04/17 12:49:48;;;;;;;4.60;2.70;;;;;;;;;;5034646;28;20115;-67
2022/04/17 12:52:22;;;;;;;5.50;2.83;;;;;;;;;;4978579;28;20073;-67
2022/04/17 12:54:56;;;;;;;5.97;3.05;;;;;;;;;;4995253;28;20274;-67
2022/04/17 12:57:27;;;;;;;5.72;2.67;;;;;;;;;;5011230;28;20058;-66
2022/04/17 12:59:57;;;;;;;7.53;2.83;;;;;;;;;;4991583;28;20058;-66
2022/04/17 13:02:28;;;;;;;9.35;5.53;;;;;;;;;;4975222;28;20054;-66
2022/04/17 13:05:00;;;;;;;5.53;1.50;;;;;;;;;;4990499;28;20054;-66
2022/04/17 13:07:37;;;;;;;7.05;3.65;;;;;;;;;;5010555;28;20053;-66
2022/04/17 13:10:08;;;;;;;7.88;2.10;;;;;;;;;;4978324;28;20434;-66
2022/04/17 13:12:47;;;;;;;4.70;1.92;;;;;;;;;;5010929;28;20053;-66
2022/04/17 13:15:29;;;;;;;6.65;2.25;;;;;;;;;;5010858;28;20061;-66
2022/04/17 13:18:00;;;;;;;6.85;1.83;;;;;;;;;;4994049;28;20056;-66
2022/04/17 13:20:34;;;;;;;3.85;2.45;;;;;;;;;;5010388;28;20064;-66
2022/04/17 13:23:08;;;;;;;5.85;2.33;;;;;;;;;;4995036;28;20057;-66
2022/04/17 13:25:39;;;;;;;4.53;2.42;;;;;;;;;;5010779;28;20414;-66
2022/04/17 13:28:11;;;;;;;8.15;3.22;;;;;;;;;;5010444;28;20053;-66
2022/04/17 13:30:41;;;;;;;;;;;;;;;;;;5026773;28;20049;-66
2022/04/17 13:33:14;;;;;;;5.57;2.50;;;;;;;;;;5050032;28;19920;-66
2022/04/17 13:35:46;;;;;;;4.07;2.00;;;;;;;;;;5050221;28;20424;-65
2022/04/17 13:38:16;;;;;;;;;;;;;;;;;;4985698;28;20544;-67
2022/04/17 13:40:52;;;;;;;3.50;1.83;;;;;;;;;;5010297;28;19921;-66
2022/04/17 13:43:24;;;;;;;4.40;1.98;;;;;;;;;;5010297;28;20050;-67
2022/04/17 13:45:56;;;;;;;5.45;3.00;;;;;;;;;;4958797;28;20415;-66
2022/04/17 13:48:26;;;;;;;;;;;;;;;;;;4952273;29;20411;-66
2022/04/17 13:50:57;;;;;;;3.67;1.40;;;;;;;;;;4952155;29;19930;-66
2022/04/17 13:53:28;;;;;;;2.42;1.13;;;;;;;;;;4983079;28;20051;-65
2022/04/17 13:55:59;;;;;;;3.17;0.70;;;;;;;;;;4920046;29;20055;-65
2022/04/17 13:58:30;;;;;;;2.00;0.88;;;;;;;;;;4935473;29;20058;-64
2022/04/17 14:01:01;;;;;;;1.65;0.93;;;;;;;;;;4951842;29;20070;-65
2022/04/17 14:03:31;;;;;;;1.63;0.93;;;;;;;;;;4989805;28;20057;-64
2022/04/17 14:06:02;;;;;;;2.20;0.80;;;;;;;;;;4990302;28;20050;-65
2022/04/17 14:08:34;;;;;;;9.50;5.22;;;;;;;;;;4989837;28;20061;-65
2022/04/17 14:11:04;;;;;;;7.28;3.05;;;;;;;;;;4990171;28;20065;-65
2022/04/17 14:13:35;;;;;;;4.82;1.40;;;;;;;;;;4974346;28;20058;-65
2022/04/17 14:16:07;;;;;;;8.98;4.72;;;;;;;;;;4979018;28;20424;-66
2022/04/17 14:18:38;;;;;;;2.17;1.10;;;;;;;;;;4954437;28;20459;-65
2022/04/17 14:21:08;;;;;;;2.45;1.00;;;;;;;;;;4936988;28;20412;-66
2022/04/17 14:23:39;;;;;;;3.60;0.90;;;;;;;;;;4969055;28;20430;-66
2022/04/17 14:26:10;;;;;;;2.38;0.93;;;;;;;;;;4970886;28;20050;-65
2022/04/17 14:28:41;;;;;;;7.07;2.08;;;;;;;;;;4970630;28;20171;-66
2022/04/17 14:31:11;;;;;;;1.95;1.00;;;;;;;;;;4980894;28;20058;-65
2022/04/17 14:33:42;;;;;;;3.05;1.13;;;;;;;;;;4973458;28;20066;-66
2022/04/17 14:36:13;;;;;;;4.00;1.73;;;;;;;;;;4990089;28;20047;-66
2022/04/17 14:38:45;;;;;;;2.17;1.00;;;;;;;;;;4989905;28;20450;-66
2022/04/17 14:41:15;;;;;;;1.83;1.08;;;;;;;;;;5009237;28;20068;-67
2022/04/17 14:43:45;;;;;;;5.82;2.88;;;;;;;;;;5009549;28;20062;-66
2022/04/17 14:46:16;;;;;;;3.88;1.10;;;;;;;;;;4981674;28;20095;-68
2022/04/17 14:48:47;;;;;;;2.35;1.00;;;;;;;;;;5049031;28;20188;-65
2022/04/17 14:51:18;;;;;;;2.85;0.85;;;;;;;;;;5049016;28;20092;-66
2022/04/17 14:53:49;;;;;;;4.68;1.88;;;;;;;;;;5032288;28;20063;-66
2022/04/17 14:56:21;;;;;;;2.75;1.20;;;;;;;;;;5016944;28;20060;-67
2022/04/17 14:58:52;;;;;;;7.03;2.50;;;;;;;;;;5048789;28;20556;-67
2022/04/17 15:01:22;;;;;;;3.13;1.42;;;;;;;;;;5049096;28;20200;-66
2022/04/17 15:03:53;;;;;;;5.72;1.00;;;;;;;;;;5015798;28;20057;-66
2022/04/17 15:06:24;;;;;;;3.90;1.42;;;;;;;;;;5048686;28;20067;-66
2022/04/17 15:08:54;;;;;;;4.03;0.85;;;;;;;;;;5048765;28;20049;-65
2022/04/17 15:11:26;;;;;;;3.65;1.00;;;;;;;;;;5048829;28;20053;-66
2022/04/17 15:13:57;;;;;;;2.65;0.82;;;;;;;;;;5048809;28;20049;-66
2022/04/17 15:16:28;;;;;;;1.58;0.85;;;;;;;;;;5048609;28;20052;-66
2022/04/17 15:18:59;;;;;;;2.00;0.93;;;;;;;;;;5050089;28;20057;-65
2022/04/17 15:21:30;;;;;;;2.85;1.08;;;;;;;;;;5033781;28;20056;-66
2022/04/17 15:24:00;;;;;;;1.85;0.80;;;;;;;;;;5048454;28;20660;-66
2022/04/17 15:26:31;;;;;;;2.22;1.15;;;;;;;;;;5008960;28;20050;-65
2022/04/17 15:29:02;;;;;;;2.25;0.70;;;;;;;;;;5012607;28;20414;-65
2022/04/17 15:31:33;;;;;;;1.98;0.90;;;;;;;;;;4980417;28;20050;-66
2022/04/17 15:34:03;;;;;;;2.58;0.90;;;;;;;;;;5012799;28;20074;-65